sensor_id;sensor_type;location;lat;lon;timestamp;P1;durP1;ratioP1;P2;durP2;ratioP2
22240;SDS011;11289;52.524;13.694;2022-11-15T00:00:55;47.97;;;29.73;;
22240;SDS011;11289;52.524;13.694;2022-11-15T00:03:22;48.05;;;30.50;;
22240;SDS011;11289;52.524;13.694;2022-11-15T00:05:49;47.08;;;29.60;;
22240;SDS011;11289;52.524;13.694;2022-11-15T00:08:14;49.58;;;31.30;;
22240;SDS011;11289;52.524;13.694;2022-11-15T00:10:40;46.88;;;30.38;;
22240;SDS011;11289;52.524;13.694;2022-11-15T00:13:06;46.20;;;29.92;;
22240;SDS011;11289;52.524;13.694;2022-11-15T00:15:36;45.65;;;30.63;;
22240;SDS011;11289;52.524;13.694;2022-11-15T00:18:03;45.60;;;29.17;;
22240;SDS011;11289;52.524;13.694;2022-11-15T00:20:28;46.90;;;29.55;;
22240;SDS011;11289;52.524;13.694;2022-11-15T00:22:54;44.80;;;30.15;;
22240;SDS011;11289;52.524;13.694;2022-11-15T00:25:20;48.53;;;31.35;;
22240;SDS011;11289;52.524;13.694;2022-11-15T00:27:45;47.95;;;30.20;;
22240;SDS011;11289;52.524;13.694;2022-11-15T00:30:11;48.60;;;30.10;;
22240;SDS011;11289;52.524;13.694;2022-11-15T00:32:37;43.45;;;29.20;;
22240;SDS011;11289;52.524;13.694;2022-11-15T00:35:03;44.53;;;28.25;;
22240;SDS011;11289;52.524;13.694;2022-11-15T00:37:28;44.70;;;29.08;;
22240;SDS011;11289;52.524;13.694;2022-11-15T00:39:53;39.00;;;26.73;;
22240;SDS011;11289;52.524;13.694;2022-11-15T00:42:19;41.53;;;26.20;;
22240;SDS011;11289;52.524;13.694;2022-11-15T00:44:44;46.40;;;29.05;;
22240;SDS011;11289;52.524;13.694;2022-11-15T00:47:10;47.53;;;29.05;;
22240;SDS011;11289;52.524;13.694;2022-11-15T00:49:35;43.25;;;28.02;;
22240;SDS011;11289;52.524;13.694;2022-11-15T00:52:00;42.17;;;28.20;;
22240;SDS011;11289;52.524;13.694;2022-11-15T00:54:26;46.58;;;28.90;;
22240;SDS011;11289;52.524;13.694;2022-11-15T00:56:51;39.00;;;26.27;;
22240;SDS011;11289;52.524;13.694;2022-11-15T00:59:16;39.88;;;26.38;;
22240;SDS011;11289;52.524;13.694;2022-11-15T01:01:42;41.53;;;27.45;;
22240;SDS011;11289;52.524;13.694;2022-11-15T01:04:07;41.72;;;26.60;;
22240;SDS011;11289;52.524;13.694;2022-11-15T01:06:33;43.72;;;29.48;;
22240;SDS011;11289;52.524;13.694;2022-11-15T01:08:58;41.42;;;27.77;;
22240;SDS011;11289;52.524;13.694;2022-11-15T01:11:23;42.95;;;27.70;;
22240;SDS011;11289;52.524;13.694;2022-11-15T01:13:49;43.28;;;27.67;;
22240;SDS011;11289;52.524;13.694;2022-11-15T01:16:15;38.53;;;25.75;;
22240;SDS011;11289;52.524;13.694;2022-11-15T01:18:43;42.97;;;27.48;;
22240;SDS011;11289;52.524;13.694;2022-11-15T01:21:09;44.22;;;27.38;;
22240;SDS011;11289;52.524;13.694;2022-11-15T01:23:36;41.63;;;27.00;;
22240;SDS011;11289;52.524;13.694;2022-11-15T01:26:03;41.08;;;26.25;;
22240;SDS011;11289;52.524;13.694;2022-11-15T01:28:34;41.88;;;28.17;;
22240;SDS011;11289;52.524;13.694;2022-11-15T01:31:01;42.83;;;27.35;;
22240;SDS011;11289;52.524;13.694;2022-11-15T01:33:29;36.60;;;25.63;;
22240;SDS011;11289;52.524;13.694;2022-11-15T01:35:55;41.72;;;26.92;;
22240;SDS011;11289;52.524;13.694;2022-11-15T01:38:21;40.30;;;25.20;;
22240;SDS011;11289;52.524;13.694;2022-11-15T01:40:46;40.03;;;26.42;;
22240;SDS011;11289;52.524;13.694;2022-11-15T01:43:31;41.78;;;27.67;;
22240;SDS011;11289;52.524;13.694;2022-11-15T01:46:00;41.03;;;27.05;;
22240;SDS011;11289;52.524;13.694;2022-11-15T01:48:52;38.63;;;25.75;;
22240;SDS011;11289;52.524;13.694;2022-11-15T01:51:21;39.70;;;26.48;;
22240;SDS011;11289;52.524;13.694;2022-11-15T01:53:51;39.00;;;25.25;;
22240;SDS011;11289;52.524;13.694;2022-11-15T01:56:21;40.33;;;26.73;;
22240;SDS011;11289;52.524;13.694;2022-11-15T01:58:50;39.50;;;26.48;;
22240;SDS011;11289;52.524;13.694;2022-11-15T02:01:17;37.08;;;24.80;;
22240;SDS011;11289;52.524;13.694;2022-11-15T02:06:15;36.97;;;25.27;;
22240;SDS011;11289;52.524;13.694;2022-11-15T02:08:41;39.03;;;25.63;;
22240;SDS011;11289;52.524;13.694;2022-11-15T02:11:08;40.05;;;26.35;;
22240;SDS011;11289;52.524;13.694;2022-11-15T02:13:34;40.35;;;26.42;;
22240;SDS011;11289;52.524;13.694;2022-11-15T02:30:55;40.75;;;25.38;;
22240;SDS011;11289;52.524;13.694;2022-11-15T02:38:40;40.80;;;27.25;;
22240;SDS011;11289;52.524;13.694;2022-11-15T02:44:24;40.67;;;26.00;;
22240;SDS011;11289;52.524;13.694;2022-11-15T02:47:03;39.05;;;26.38;;
22240;SDS011;11289;52.524;13.694;2022-11-15T02:50:14;44.83;;;28.42;;
22240;SDS011;11289;52.524;13.694;2022-11-15T02:52:33;37.28;;;25.40;;
22240;SDS011;11289;52.524;13.694;2022-11-15T02:55:00;40.75;;;26.65;;
22240;SDS011;11289;52.524;13.694;2022-11-15T03:05:34;38.67;;;25.45;;
22240;SDS011;11289;52.524;13.694;2022-11-15T03:11:09;38.92;;;25.10;;
22240;SDS011;11289;52.524;13.694;2022-11-15T03:13:39;38.83;;;25.17;;
22240;SDS011;11289;52.524;13.694;2022-11-15T03:19:24;37.55;;;25.73;;
22240;SDS011;11289;52.524;13.694;2022-11-15T03:21:51;36.63;;;25.15;;
22240;SDS011;11289;52.524;13.694;2022-11-15T03:24:20;37.42;;;26.05;;
22240;SDS011;11289;52.524;13.694;2022-11-15T03:26:48;37.75;;;26.63;;
22240;SDS011;11289;52.524;13.694;2022-11-15T03:29:19;38.72;;;25.15;;
22240;SDS011;11289;52.524;13.694;2022-11-15T03:31:51;39.60;;;25.17;;
22240;SDS011;11289;52.524;13.694;2022-11-15T03:34:41;37.58;;;25.02;;
22240;SDS011;11289;52.524;13.694;2022-11-15T03:37:20;37.88;;;27.27;;
22240;SDS011;11289;52.524;13.694;2022-11-15T03:39:54;37.25;;;24.55;;
22240;SDS011;11289;52.524;13.694;2022-11-15T03:42:22;36.75;;;25.10;;
22240;SDS011;11289;52.524;13.694;2022-11-15T03:47:32;37.63;;;25.50;;
22240;SDS011;11289;52.524;13.694;2022-11-15T03:50:09;35.92;;;25.15;;
22240;SDS011;11289;52.524;13.694;2022-11-15T03:52:38;37.78;;;25.05;;
22240;SDS011;11289;52.524;13.694;2022-11-15T03:55:07;38.08;;;26.60;;
22240;SDS011;11289;52.524;13.694;2022-11-15T03:57:39;38.15;;;25.52;;
22240;SDS011;11289;52.524;13.694;2022-11-15T04:00:05;38.17;;;24.60;;
22240;SDS011;11289;52.524;13.694;2022-11-15T04:02:31;34.95;;;23.80;;
22240;SDS011;11289;52.524;13.694;2022-11-15T04:04:57;39.60;;;25.70;;
22240;SDS011;11289;52.524;13.694;2022-11-15T04:07:22;38.15;;;24.60;;
22240;SDS011;11289;52.524;13.694;2022-11-15T04:09:47;35.22;;;25.00;;
22240;SDS011;11289;52.524;13.694;2022-11-15T04:15:13;38.38;;;26.52;;
22240;SDS011;11289;52.524;13.694;2022-11-15T04:17:44;38.65;;;24.17;;
22240;SDS011;11289;52.524;13.694;2022-11-15T04:20:32;35.58;;;24.30;;
22240;SDS011;11289;52.524;13.694;2022-11-15T04:26:03;42.58;;;28.30;;
22240;SDS011;11289;52.524;13.694;2022-11-15T04:28:30;46.97;;;32.10;;
22240;SDS011;11289;52.524;13.694;2022-11-15T04:30:56;55.55;;;36.85;;
22240;SDS011;11289;52.524;13.694;2022-11-15T04:33:21;49.03;;;33.97;;
22240;SDS011;11289;52.524;13.694;2022-11-15T04:35:47;41.97;;;29.17;;
22240;SDS011;11289;52.524;13.694;2022-11-15T04:38:32;40.42;;;27.48;;
22240;SDS011;11289;52.524;13.694;2022-11-15T04:40:58;36.92;;;26.55;;
22240;SDS011;11289;52.524;13.694;2022-11-15T04:43:23;33.80;;;24.10;;
22240;SDS011;11289;52.524;13.694;2022-11-15T04:45:49;35.25;;;25.35;;
22240;SDS011;11289;52.524;13.694;2022-11-15T04:48:14;35.28;;;24.27;;
22240;SDS011;11289;52.524;13.694;2022-11-15T04:50:39;33.58;;;23.40;;
22240;SDS011;11289;52.524;13.694;2022-11-15T04:53:05;34.55;;;23.77;;
22240;SDS011;11289;52.524;13.694;2022-11-15T04:55:31;34.28;;;23.63;;
22240;SDS011;11289;52.524;13.694;2022-11-15T04:57:57;34.20;;;24.85;;
22240;SDS011;11289;52.524;13.694;2022-11-15T05:00:23;35.63;;;24.77;;
22240;SDS011;11289;52.524;13.694;2022-11-15T05:02:49;36.70;;;24.13;;
22240;SDS011;11289;52.524;13.694;2022-11-15T05:05:33;36.00;;;24.48;;
22240;SDS011;11289;52.524;13.694;2022-11-15T05:07:58;35.15;;;23.58;;
22240;SDS011;11289;52.524;13.694;2022-11-15T05:10:23;37.03;;;25.10;;
22240;SDS011;11289;52.524;13.694;2022-11-15T05:12:49;35.10;;;25.15;;
22240;SDS011;11289;52.524;13.694;2022-11-15T05:15:14;35.75;;;24.80;;
22240;SDS011;11289;52.524;13.694;2022-11-15T05:17:42;37.72;;;23.85;;
22240;SDS011;11289;52.524;13.694;2022-11-15T05:20:07;34.67;;;23.80;;
22240;SDS011;11289;52.524;13.694;2022-11-15T05:22:33;37.47;;;25.40;;
22240;SDS011;11289;52.524;13.694;2022-11-15T05:24:59;38.45;;;23.80;;
22240;SDS011;11289;52.524;13.694;2022-11-15T05:27:24;38.20;;;25.38;;
22240;SDS011;11289;52.524;13.694;2022-11-15T05:29:49;37.85;;;25.10;;
22240;SDS011;11289;52.524;13.694;2022-11-15T05:32:15;32.53;;;24.92;;
22240;SDS011;11289;52.524;13.694;2022-11-15T05:34:41;33.47;;;24.75;;
22240;SDS011;11289;52.524;13.694;2022-11-15T05:37:07;34.15;;;24.35;;
22240;SDS011;11289;52.524;13.694;2022-11-15T05:39:32;36.03;;;24.27;;
22240;SDS011;11289;52.524;13.694;2022-11-15T05:42:10;32.75;;;24.00;;
22240;SDS011;11289;52.524;13.694;2022-11-15T05:44:38;34.58;;;22.80;;
22240;SDS011;11289;52.524;13.694;2022-11-15T05:47:09;34.08;;;24.10;;
22240;SDS011;11289;52.524;13.694;2022-11-15T05:49:37;35.15;;;23.83;;
22240;SDS011;11289;52.524;13.694;2022-11-15T05:52:05;33.78;;;23.52;;
22240;SDS011;11289;52.524;13.694;2022-11-15T05:54:35;37.15;;;25.38;;
22240;SDS011;11289;52.524;13.694;2022-11-15T05:57:01;33.72;;;24.38;;
22240;SDS011;11289;52.524;13.694;2022-11-15T05:59:28;36.97;;;25.48;;
22240;SDS011;11289;52.524;13.694;2022-11-15T06:01:55;32.72;;;24.25;;
22240;SDS011;11289;52.524;13.694;2022-11-15T06:04:21;35.15;;;24.02;;
22240;SDS011;11289;52.524;13.694;2022-11-15T06:06:46;39.72;;;24.17;;
22240;SDS011;11289;52.524;13.694;2022-11-15T06:09:11;39.90;;;25.35;;
22240;SDS011;11289;52.524;13.694;2022-11-15T06:11:37;35.22;;;24.75;;
22240;SDS011;11289;52.524;13.694;2022-11-15T06:14:02;40.17;;;26.55;;
22240;SDS011;11289;52.524;13.694;2022-11-15T06:16:27;39.70;;;25.77;;
22240;SDS011;11289;52.524;13.694;2022-11-15T06:18:53;34.55;;;23.88;;
22240;SDS011;11289;52.524;13.694;2022-11-15T06:21:18;35.90;;;25.25;;
22240;SDS011;11289;52.524;13.694;2022-11-15T06:23:44;34.67;;;24.30;;
22240;SDS011;11289;52.524;13.694;2022-11-15T06:26:09;37.40;;;24.77;;
22240;SDS011;11289;52.524;13.694;2022-11-15T06:28:34;40.00;;;25.60;;
22240;SDS011;11289;52.524;13.694;2022-11-15T06:31:04;36.78;;;25.30;;
22240;SDS011;11289;52.524;13.694;2022-11-15T06:33:33;38.55;;;23.88;;
22240;SDS011;11289;52.524;13.694;2022-11-15T06:36:02;36.28;;;25.02;;
22240;SDS011;11289;52.524;13.694;2022-11-15T06:38:28;37.17;;;24.52;;
22240;SDS011;11289;52.524;13.694;2022-11-15T06:40:54;36.90;;;25.27;;
22240;SDS011;11289;52.524;13.694;2022-11-15T06:43:19;35.17;;;24.85;;
22240;SDS011;11289;52.524;13.694;2022-11-15T06:45:45;36.55;;;25.67;;
22240;SDS011;11289;52.524;13.694;2022-11-15T06:48:10;33.38;;;24.00;;
22240;SDS011;11289;52.524;13.694;2022-11-15T06:50:35;34.53;;;23.17;;
22240;SDS011;11289;52.524;13.694;2022-11-15T06:53:02;37.80;;;22.92;;
22240;SDS011;11289;52.524;13.694;2022-11-15T06:55:28;33.30;;;24.85;;
22240;SDS011;11289;52.524;13.694;2022-11-15T06:57:54;32.35;;;23.92;;
22240;SDS011;11289;52.524;13.694;2022-11-15T07:00:20;34.50;;;23.08;;
22240;SDS011;11289;52.524;13.694;2022-11-15T07:02:46;35.53;;;24.63;;
22240;SDS011;11289;52.524;13.694;2022-11-15T07:05:12;36.20;;;24.02;;
22240;SDS011;11289;52.524;13.694;2022-11-15T07:07:39;38.50;;;24.67;;
22240;SDS011;11289;52.524;13.694;2022-11-15T07:10:05;38.92;;;24.70;;
22240;SDS011;11289;52.524;13.694;2022-11-15T07:12:31;38.50;;;24.85;;
22240;SDS011;11289;52.524;13.694;2022-11-15T07:14:57;38.45;;;25.60;;
22240;SDS011;11289;52.524;13.694;2022-11-15T07:17:22;40.40;;;24.40;;
22240;SDS011;11289;52.524;13.694;2022-11-15T07:19:48;38.03;;;25.88;;
22240;SDS011;11289;52.524;13.694;2022-11-15T07:22:13;37.03;;;25.27;;
22240;SDS011;11289;52.524;13.694;2022-11-15T07:24:39;39.40;;;24.40;;
22240;SDS011;11289;52.524;13.694;2022-11-15T07:27:04;41.60;;;26.27;;
22240;SDS011;11289;52.524;13.694;2022-11-15T07:29:29;38.22;;;26.10;;
22240;SDS011;11289;52.524;13.694;2022-11-15T07:31:55;37.78;;;25.42;;
22240;SDS011;11289;52.524;13.694;2022-11-15T07:34:20;39.33;;;26.30;;
22240;SDS011;11289;52.524;13.694;2022-11-15T07:36:45;37.33;;;24.92;;
22240;SDS011;11289;52.524;13.694;2022-11-15T07:39:11;40.25;;;26.25;;
22240;SDS011;11289;52.524;13.694;2022-11-15T07:41:37;37.78;;;25.70;;
22240;SDS011;11289;52.524;13.694;2022-11-15T07:44:03;40.00;;;26.10;;
22240;SDS011;11289;52.524;13.694;2022-11-15T07:46:29;37.95;;;26.90;;
22240;SDS011;11289;52.524;13.694;2022-11-15T07:48:55;41.70;;;29.67;;
22240;SDS011;11289;52.524;13.694;2022-11-15T07:51:21;42.35;;;28.55;;
22240;SDS011;11289;52.524;13.694;2022-11-15T07:53:46;38.28;;;26.95;;
22240;SDS011;11289;52.524;13.694;2022-11-15T07:56:11;41.10;;;28.58;;
22240;SDS011;11289;52.524;13.694;2022-11-15T07:58:37;39.38;;;27.73;;
22240;SDS011;11289;52.524;13.694;2022-11-15T08:01:06;42.10;;;27.85;;
22240;SDS011;11289;52.524;13.694;2022-11-15T08:03:32;46.28;;;30.08;;
22240;SDS011;11289;52.524;13.694;2022-11-15T08:05:58;43.65;;;30.30;;
22240;SDS011;11289;52.524;13.694;2022-11-15T08:08:23;39.25;;;27.63;;
22240;SDS011;11289;52.524;13.694;2022-11-15T08:10:49;42.03;;;28.92;;
22240;SDS011;11289;52.524;13.694;2022-11-15T08:13:14;46.03;;;32.08;;
22240;SDS011;11289;52.524;13.694;2022-11-15T08:15:40;44.60;;;27.98;;
22240;SDS011;11289;52.524;13.694;2022-11-15T08:18:06;45.83;;;28.98;;
22240;SDS011;11289;52.524;13.694;2022-11-15T08:20:36;47.63;;;30.15;;
22240;SDS011;11289;52.524;13.694;2022-11-15T08:23:02;41.20;;;28.05;;
22240;SDS011;11289;52.524;13.694;2022-11-15T08:25:29;45.67;;;29.88;;
22240;SDS011;11289;52.524;13.694;2022-11-15T08:27:57;46.80;;;29.85;;
22240;SDS011;11289;52.524;13.694;2022-11-15T08:30:24;48.63;;;29.60;;
22240;SDS011;11289;52.524;13.694;2022-11-15T08:32:50;44.88;;;30.23;;
22240;SDS011;11289;52.524;13.694;2022-11-15T08:35:17;43.13;;;28.95;;
22240;SDS011;11289;52.524;13.694;2022-11-15T08:37:43;44.15;;;29.85;;
22240;SDS011;11289;52.524;13.694;2022-11-15T08:40:09;42.55;;;29.05;;
22240;SDS011;11289;52.524;13.694;2022-11-15T08:42:34;44.75;;;28.83;;
22240;SDS011;11289;52.524;13.694;2022-11-15T08:45:00;43.83;;;30.30;;
22240;SDS011;11289;52.524;13.694;2022-11-15T08:47:25;42.60;;;29.88;;
22240;SDS011;11289;52.524;13.694;2022-11-15T08:49:51;42.22;;;28.88;;
22240;SDS011;11289;52.524;13.694;2022-11-15T08:52:17;45.67;;;30.65;;
22240;SDS011;11289;52.524;13.694;2022-11-15T08:54:42;40.78;;;28.48;;
22240;SDS011;11289;52.524;13.694;2022-11-15T08:57:07;46.45;;;28.58;;
22240;SDS011;11289;52.524;13.694;2022-11-15T08:59:34;41.35;;;28.65;;
22240;SDS011;11289;52.524;13.694;2022-11-15T09:02:00;43.60;;;27.25;;
22240;SDS011;11289;52.524;13.694;2022-11-15T09:04:25;40.85;;;28.08;;
22240;SDS011;11289;52.524;13.694;2022-11-15T09:06:51;40.80;;;28.90;;
22240;SDS011;11289;52.524;13.694;2022-11-15T09:09:16;39.20;;;27.88;;
22240;SDS011;11289;52.524;13.694;2022-11-15T09:11:42;37.15;;;26.77;;
22240;SDS011;11289;52.524;13.694;2022-11-15T09:14:10;37.53;;;26.25;;
22240;SDS011;11289;52.524;13.694;2022-11-15T09:16:37;37.38;;;26.38;;
22240;SDS011;11289;52.524;13.694;2022-11-15T09:19:02;38.30;;;27.13;;
22240;SDS011;11289;52.524;13.694;2022-11-15T09:21:28;40.47;;;27.10;;
22240;SDS011;11289;52.524;13.694;2022-11-15T09:23:54;38.20;;;26.63;;
22240;SDS011;11289;52.524;13.694;2022-11-15T09:26:19;32.92;;;24.50;;
22240;SDS011;11289;52.524;13.694;2022-11-15T09:28:45;39.83;;;26.58;;
22240;SDS011;11289;52.524;13.694;2022-11-15T09:31:10;35.83;;;26.10;;
22240;SDS011;11289;52.524;13.694;2022-11-15T09:33:36;38.10;;;24.05;;
22240;SDS011;11289;52.524;13.694;2022-11-15T09:36:08;33.80;;;25.33;;
22240;SDS011;11289;52.524;13.694;2022-11-15T09:38:34;62.85;;;29.85;;
22240;SDS011;11289;52.524;13.694;2022-11-15T09:41:17;38.40;;;24.77;;
22240;SDS011;11289;52.524;13.694;2022-11-15T09:49:32;33.85;;;24.55;;
22240;SDS011;11289;52.524;13.694;2022-11-15T09:51:57;34.17;;;23.85;;
22240;SDS011;11289;52.524;13.694;2022-11-15T09:59:48;28.85;;;21.30;;
22240;SDS011;11289;52.524;13.694;2022-11-15T10:05:22;33.17;;;22.75;;
22240;SDS011;11289;52.524;13.694;2022-11-15T10:10:57;31.58;;;22.55;;
22240;SDS011;11289;52.524;13.694;2022-11-15T10:13:26;30.15;;;21.02;;
22240;SDS011;11289;52.524;13.694;2022-11-15T10:15:58;30.63;;;21.92;;
22240;SDS011;11289;52.524;13.694;2022-11-15T10:18:54;26.95;;;19.80;;
22240;SDS011;11289;52.524;13.694;2022-11-15T10:22:04;27.35;;;19.85;;
22240;SDS011;11289;52.524;13.694;2022-11-15T10:24:37;28.70;;;21.00;;
22240;SDS011;11289;52.524;13.694;2022-11-15T10:27:07;28.20;;;20.85;;
22240;SDS011;11289;52.524;13.694;2022-11-15T10:32:08;25.13;;;19.45;;
22240;SDS011;11289;52.524;13.694;2022-11-15T10:34:36;26.20;;;20.63;;
22240;SDS011;11289;52.524;13.694;2022-11-15T10:37:01;30.10;;;20.63;;
22240;SDS011;11289;52.524;13.694;2022-11-15T10:39:27;26.15;;;20.05;;
22240;SDS011;11289;52.524;13.694;2022-11-15T10:41:53;23.35;;;18.30;;
22240;SDS011;11289;52.524;13.694;2022-11-15T10:44:20;28.90;;;19.70;;
22240;SDS011;11289;52.524;13.694;2022-11-15T10:49:21;27.77;;;19.45;;
22240;SDS011;11289;52.524;13.694;2022-11-15T10:59:42;25.42;;;18.92;;
22240;SDS011;11289;52.524;13.694;2022-11-15T11:05:25;23.55;;;17.20;;
22240;SDS011;11289;52.524;13.694;2022-11-15T11:07:57;23.13;;;17.20;;
22240;SDS011;11289;52.524;13.694;2022-11-15T11:10:24;28.02;;;18.08;;
22240;SDS011;11289;52.524;13.694;2022-11-15T11:12:50;24.38;;;17.45;;
22240;SDS011;11289;52.524;13.694;2022-11-15T11:15:15;23.42;;;17.40;;
22240;SDS011;11289;52.524;13.694;2022-11-15T11:17:48;20.73;;;15.52;;
22240;SDS011;11289;52.524;13.694;2022-11-15T11:23:01;23.83;;;15.93;;
22240;SDS011;11289;52.524;13.694;2022-11-15T11:29:04;22.02;;;15.90;;
22240;SDS011;11289;52.524;13.694;2022-11-15T11:31:46;21.65;;;15.40;;
22240;SDS011;11289;52.524;13.694;2022-11-15T11:34:58;19.05;;;15.23;;
22240;SDS011;11289;52.524;13.694;2022-11-15T11:37:30;17.50;;;15.13;;
22240;SDS011;11289;52.524;13.694;2022-11-15T11:45:44;17.50;;;14.55;;
22240;SDS011;11289;52.524;13.694;2022-11-15T11:48:38;19.33;;;15.25;;
22240;SDS011;11289;52.524;13.694;2022-11-15T11:51:28;20.02;;;14.30;;
22240;SDS011;11289;52.524;13.694;2022-11-15T11:54:06;20.90;;;15.48;;
22240;SDS011;11289;52.524;13.694;2022-11-15T11:56:39;23.00;;;15.40;;
22240;SDS011;11289;52.524;13.694;2022-11-15T11:59:09;22.52;;;14.80;;
22240;SDS011;11289;52.524;13.694;2022-11-15T12:01:56;18.65;;;15.15;;
22240;SDS011;11289;52.524;13.694;2022-11-15T12:04:30;21.90;;;15.63;;
22240;SDS011;11289;52.524;13.694;2022-11-15T12:07:13;19.00;;;14.90;;
22240;SDS011;11289;52.524;13.694;2022-11-15T12:12:50;20.30;;;13.88;;
22240;SDS011;11289;52.524;13.694;2022-11-15T12:15:24;23.40;;;15.13;;
22240;SDS011;11289;52.524;13.694;2022-11-15T12:17:54;21.75;;;15.02;;
22240;SDS011;11289;52.524;13.694;2022-11-15T12:20:25;21.92;;;16.83;;
22240;SDS011;11289;52.524;13.694;2022-11-15T12:25:33;23.25;;;15.63;;
22240;SDS011;11289;52.524;13.694;2022-11-15T12:28:13;21.27;;;15.18;;
22240;SDS011;11289;52.524;13.694;2022-11-15T12:30:47;19.92;;;16.05;;
22240;SDS011;11289;52.524;13.694;2022-11-15T12:34:00;22.65;;;15.95;;
22240;SDS011;11289;52.524;13.694;2022-11-15T12:36:11;21.10;;;15.52;;
22240;SDS011;11289;52.524;13.694;2022-11-15T12:38:58;22.08;;;15.27;;
22240;SDS011;11289;52.524;13.694;2022-11-15T12:43:56;22.58;;;14.63;;
22240;SDS011;11289;52.524;13.694;2022-11-15T12:49:03;20.92;;;16.02;;
22240;SDS011;11289;52.524;13.694;2022-11-15T12:52:03;20.98;;;16.98;;
22240;SDS011;11289;52.524;13.694;2022-11-15T12:54:49;21.85;;;16.55;;
22240;SDS011;11289;52.524;13.694;2022-11-15T13:02:19;23.35;;;17.33;;
22240;SDS011;11289;52.524;13.694;2022-11-15T13:07:59;22.80;;;16.60;;
22240;SDS011;11289;52.524;13.694;2022-11-15T13:12:51;22.00;;;16.25;;
22240;SDS011;11289;52.524;13.694;2022-11-15T13:25:27;22.00;;;16.33;;
22240;SDS011;11289;52.524;13.694;2022-11-15T13:30:48;22.17;;;16.17;;
22240;SDS011;11289;52.524;13.694;2022-11-15T13:33:15;20.95;;;15.40;;
22240;SDS011;11289;52.524;13.694;2022-11-15T13:35:45;24.08;;;15.63;;
22240;SDS011;11289;52.524;13.694;2022-11-15T13:40:51;24.95;;;16.75;;
22240;SDS011;11289;52.524;13.694;2022-11-15T13:43:23;22.05;;;16.02;;
22240;SDS011;11289;52.524;13.694;2022-11-15T13:48:39;23.80;;;16.15;;
22240;SDS011;11289;52.524;13.694;2022-11-15T13:51:08;21.75;;;15.15;;
22240;SDS011;11289;52.524;13.694;2022-11-15T13:53:46;23.98;;;17.52;;
22240;SDS011;11289;52.524;13.694;2022-11-15T13:56:18;21.83;;;16.90;;
22240;SDS011;11289;52.524;13.694;2022-11-15T13:58:45;24.45;;;16.20;;
22240;SDS011;11289;52.524;13.694;2022-11-15T14:01:18;25.17;;;16.27;;
22240;SDS011;11289;52.524;13.694;2022-11-15T14:03:49;21.83;;;15.45;;
22240;SDS011;11289;52.524;13.694;2022-11-15T14:06:18;20.92;;;16.00;;
22240;SDS011;11289;52.524;13.694;2022-11-15T14:11:36;21.42;;;14.43;;
22240;SDS011;11289;52.524;13.694;2022-11-15T14:14:08;23.00;;;15.38;;
22240;SDS011;11289;52.524;13.694;2022-11-15T14:16:41;21.38;;;15.73;;
22240;SDS011;11289;52.524;13.694;2022-11-15T14:19:10;23.45;;;15.60;;
22240;SDS011;11289;52.524;13.694;2022-11-15T14:22:06;25.63;;;16.90;;
22240;SDS011;11289;52.524;13.694;2022-11-15T14:24:33;21.42;;;15.27;;
22240;SDS011;11289;52.524;13.694;2022-11-15T14:27:15;19.67;;;15.07;;
22240;SDS011;11289;52.524;13.694;2022-11-15T14:29:43;21.63;;;14.82;;
22240;SDS011;11289;52.524;13.694;2022-11-15T14:32:12;58.13;;;18.42;;
22240;SDS011;11289;52.524;13.694;2022-11-15T14:34:45;61.22;;;17.13;;
22240;SDS011;11289;52.524;13.694;2022-11-15T14:37:21;31.00;;;15.35;;
22240;SDS011;11289;52.524;13.694;2022-11-15T14:39:48;27.08;;;14.60;;
22240;SDS011;11289;52.524;13.694;2022-11-15T14:42:14;20.27;;;14.77;;
22240;SDS011;11289;52.524;13.694;2022-11-15T14:44:56;22.45;;;14.93;;
22240;SDS011;11289;52.524;13.694;2022-11-15T14:47:23;20.65;;;13.75;;
22240;SDS011;11289;52.524;13.694;2022-11-15T14:49:48;21.85;;;13.80;;
22240;SDS011;11289;52.524;13.694;2022-11-15T14:52:23;20.75;;;14.10;;
22240;SDS011;11289;52.524;13.694;2022-11-15T14:54:53;18.58;;;13.93;;
22240;SDS011;11289;52.524;13.694;2022-11-15T14:57:20;17.90;;;13.20;;
22240;SDS011;11289;52.524;13.694;2022-11-15T14:59:45;19.38;;;13.60;;
22240;SDS011;11289;52.524;13.694;2022-11-15T15:02:18;18.88;;;13.98;;
22240;SDS011;11289;52.524;13.694;2022-11-15T15:04:51;19.35;;;13.98;;
22240;SDS011;11289;52.524;13.694;2022-11-15T15:07:17;21.95;;;14.88;;
22240;SDS011;11289;52.524;13.694;2022-11-15T15:09:42;18.92;;;13.80;;
22240;SDS011;11289;52.524;13.694;2022-11-15T15:12:19;21.15;;;16.48;;
22240;SDS011;11289;52.524;13.694;2022-11-15T15:14:46;20.45;;;15.07;;
22240;SDS011;11289;52.524;13.694;2022-11-15T15:17:13;22.60;;;14.93;;
22240;SDS011;11289;52.524;13.694;2022-11-15T15:19:39;19.17;;;15.43;;
22240;SDS011;11289;52.524;13.694;2022-11-15T15:22:04;20.67;;;15.43;;
22240;SDS011;11289;52.524;13.694;2022-11-15T15:24:30;23.35;;;17.25;;
22240;SDS011;11289;52.524;13.694;2022-11-15T15:26:56;25.00;;;19.60;;
22240;SDS011;11289;52.524;13.694;2022-11-15T15:29:21;27.40;;;21.23;;
22240;SDS011;11289;52.524;13.694;2022-11-15T15:31:46;28.33;;;22.27;;
22240;SDS011;11289;52.524;13.694;2022-11-15T15:34:13;32.05;;;22.25;;
22240;SDS011;11289;52.524;13.694;2022-11-15T15:36:38;28.90;;;22.42;;
22240;SDS011;11289;52.524;13.694;2022-11-15T15:39:04;33.47;;;23.58;;
22240;SDS011;11289;52.524;13.694;2022-11-15T15:41:29;30.48;;;22.35;;
22240;SDS011;11289;52.524;13.694;2022-11-15T15:43:54;30.45;;;23.25;;
22240;SDS011;11289;52.524;13.694;2022-11-15T15:46:20;31.58;;;24.15;;
22240;SDS011;11289;52.524;13.694;2022-11-15T15:48:45;30.50;;;23.85;;
22240;SDS011;11289;52.524;13.694;2022-11-15T15:51:19;34.88;;;25.70;;
22240;SDS011;11289;52.524;13.694;2022-11-15T15:53:44;37.05;;;28.27;;
22240;SDS011;11289;52.524;13.694;2022-11-15T15:56:10;41.35;;;31.17;;
22240;SDS011;11289;52.524;13.694;2022-11-15T15:58:35;39.33;;;29.20;;
22240;SDS011;11289;52.524;13.694;2022-11-15T16:01:00;41.55;;;29.88;;
22240;SDS011;11289;52.524;13.694;2022-11-15T16:03:26;38.47;;;28.65;;
22240;SDS011;11289;52.524;13.694;2022-11-15T16:05:52;40.30;;;28.95;;
22240;SDS011;11289;52.524;13.694;2022-11-15T16:08:22;40.67;;;30.58;;
22240;SDS011;11289;52.524;13.694;2022-11-15T16:10:49;42.00;;;30.90;;
22240;SDS011;11289;52.524;13.694;2022-11-15T16:13:15;41.92;;;31.52;;
22240;SDS011;11289;52.524;13.694;2022-11-15T16:15:41;40.28;;;29.63;;
22240;SDS011;11289;52.524;13.694;2022-11-15T16:18:17;41.95;;;32.83;;
22240;SDS011;11289;52.524;13.694;2022-11-15T16:20:44;41.33;;;30.70;;
22240;SDS011;11289;52.524;13.694;2022-11-15T16:23:12;40.17;;;30.58;;
22240;SDS011;11289;52.524;13.694;2022-11-15T16:25:46;42.67;;;31.75;;
22240;SDS011;11289;52.524;13.694;2022-11-15T16:28:15;46.88;;;31.90;;
22240;SDS011;11289;52.524;13.694;2022-11-15T16:30:48;42.97;;;32.42;;
22240;SDS011;11289;52.524;13.694;2022-11-15T16:33:14;46.63;;;33.05;;
22240;SDS011;11289;52.524;13.694;2022-11-15T16:35:42;44.28;;;31.55;;